Terminal Aerodrome Forecast
Issued by NWS

Home | Current Version | Previous Version | Text Only | Print | Product List | Glossary On
Versions: 1 2 3 4 5 6 7 8 9 10 11 12 13
000
FTPA31 PHFO 221727
TAFHKO
TAF
PHKO 221727Z 2218/2318 VRB05KT P6SM SCT050 OVC200
     FM222000 23009KT P6SM SCT050 OVC200
     FM230400 VRB06KT P6SM VCSH SCT030 BKN050
     FM230800 09005KT P6SM VCSH FEW030 BKN050=

USA.gov is the U.S. government's official web portal to all federal, state and local government web resources and services.